Latest Weather Observations for Mount William

IDV60801

Issued at 5:05 pm EST Thursday 31 July 2014 (issued every 30 minutes, with the page automatically refreshed every 10 minutes)

About weather observations | Map of weather stations | Latest weather observations for VIC | Other Formats
Station Details ID: 079103 Name: MOUNT WILLIAM Lat: -37.30 Lon: 142.60 Height: 1150.0 m
Data from the previous 72 hours. | See also: Recent months at Mount William
Date/Time
EST
Temp
°C
App
Temp
°C
Dew
Point
Rel
Hum
%
Delta-T
°C
Wind Press
QNH
hPa
Press
MSL
hPa
Rain
since 9 am
mm
Dir
 
Spd
km/h
Gust
km/h
Spd
kts
Gust
kts
31/05:00pm -0.5 -2.6 -0.6 99 0.0 WNW 0 0 0 0 - - 13.8
31/04:30pm -0.3 -8.4 -0.4 99 0.0 WSW 32 57 17 31 - - 13.6
31/04:21pm -0.1 -7.8 -0.2 99 0.0 W 30 52 16 28 - - 13.6
31/04:00pm -0.2 -7.9 -0.3 99 0.0 W 30 46 16 25 - - 13.0
31/03:30pm -0.2 -7.5 -0.3 99 0.0 WSW 28 56 15 30 - - 13.0
31/03:00pm 0.0 -9.4 -0.1 99 0.0 WSW 39 69 21 37 - - 13.0
31/02:30pm 0.4 -10.7 0.3 99 0.0 W 48 70 26 38 - - 12.4
31/02:00pm 0.8 -8.9 0.7 99 0.0 WSW 41 70 22 38 - - 10.2
31/01:30pm 4.2 -4.5 4.1 99 0.0 W 39 67 21 36 - - 5.8
31/01:15pm 4.3 -7.2 4.2 99 0.0 W 54 74 29 40 - - 4.0
31/01:14pm 4.3 -7.8 4.2 99 0.0 W 57 74 31 40 - - 3.6
31/01:00pm 5.2 -7.1 5.1 99 0.0 WNW 59 89 32 48 - - 0.8
31/12:30pm 5.3 -7.0 5.2 99 0.0 WNW 59 95 32 51 - - 0.0
31/12:17pm 5.5 -8.3 5.1 97 0.2 WNW 67 107 36 58 - - 0.0
31/12:00pm 5.2 -7.5 5.1 99 0.0 WNW 61 87 33 47 - - 0.0
31/11:30am 5.1 -8.8 4.8 98 0.1 WNW 67 96 36 52 - - 0.0
31/11:00am 5.1 -10.6 4.5 96 0.3 WNW 76 111 41 60 - - 0.0
31/10:30am 4.7 -10.9 4.6 99 0.0 WNW 76 109 41 59 - - 0.0
31/10:00am 4.6 -12.2 4.5 99 0.0 W 82 109 44 59 - - 0.0
31/09:30am 4.7 -10.2 4.3 97 0.2 W 72 107 39 58 - - 0.0
31/09:00am 4.5 -10.5 4.2 98 0.1 WNW 72 96 39 52 - - 6.6
31/08:30am 4.2 -10.2 4.1 99 0.0 WNW 69 95 37 51 - - 6.6
31/08:00am 4.1 -9.6 3.8 98 0.1 WNW 65 98 35 53 - - 6.6
31/07:42am 4.2 -9.5 3.6 96 0.3 WNW 65 104 35 56 - - 6.6
31/07:30am 4.1 -8.9 3.5 96 0.3 WNW 61 80 33 43 - - 6.6
31/07:00am 4.2 -9.1 4.1 99 0.0 WNW 63 93 34 50 - - 6.6
31/06:30am 4.4 -8.5 4.0 97 0.2 WNW 61 93 33 50 - - 6.6
31/06:00am 4.6 -9.0 4.2 97 0.2 WNW 65 93 35 50 - - 6.6
31/05:30am 4.7 -9.6 4.4 98 0.1 WNW 69 113 37 61 - - 6.6
31/05:00am 4.9 -10.0 4.3 96 0.3 WNW 72 102 39 55 - - 6.6
31/04:30am 5.1 -10.2 4.2 94 0.4 W 74 104 40 56 - - 6.6
31/04:00am 4.9 -10.4 4.5 97 0.2 W 74 106 40 57 - - 6.6
31/03:30am 5.0 -10.2 4.9 99 0.0 WNW 74 100 40 54 - - 6.6
31/03:00am 5.4 -9.3 5.3 99 0.0 W 72 100 39 54 - - 6.6
31/02:30am 5.5 -8.8 5.4 99 0.0 W 70 95 38 51 - - 6.6
31/02:00am 5.5 -8.6 5.4 99 0.0 W 69 104 37 56 - - 6.6
31/01:53am 5.5 -8.3 5.4 99 0.0 W 67 104 36 56 - - 6.6
31/01:30am 5.2 -7.1 5.1 99 0.0 W 59 83 32 45 - - 6.6
31/01:00am 5.3 -7.0 5.2 99 0.0 W 59 89 32 48 - - 6.6
31/12:30am 5.5 -7.1 5.4 99 0.0 W 61 85 33 46 - - 6.6
31/12:00am 5.6 -6.2 5.5 99 0.0 W 57 85 31 46 - - 6.6
 
Date/Time
EST
Temp
°C
App
Temp
°C
Dew
Point
Rel
Hum
%
Delta-T
°C
Wind Press
QNH
hPa
Press
MSL
hPa
Rain
since 9 am
mm
Dir
 
Spd
km/h
Gust
km/h
Spd
kts
Gust
kts
30/11:30pm 5.6 -8.1 5.5 99 0.0 W 67 100 36 54 - - 6.6
30/11:00pm 5.1 -7.6 5.0 99 0.0 W 61 82 33 44 - - 6.6
30/10:30pm 5.5 -6.7 5.4 99 0.0 W 59 100 32 54 - - 6.6
30/10:00pm 5.7 -7.6 5.6 99 0.0 W 65 95 35 51 - - 6.6
30/09:30pm 5.7 -8.0 5.6 99 0.0 W 67 100 36 54 - - 6.6
30/09:00pm 6.1 -7.5 6.0 99 0.0 W 67 98 36 53 - - 6.4
30/08:30pm 5.8 -6.8 5.7 99 0.0 WNW 61 85 33 46 - - 6.4
30/08:00pm 5.5 -7.1 5.4 99 0.0 W 61 87 33 47 - - 6.4
30/07:30pm 5.3 -6.4 5.2 99 0.0 W 56 78 30 42 - - 6.4
30/07:00pm 5.4 -7.6 5.3 99 0.0 W 63 89 34 48 - - 6.4
30/06:30pm 5.6 -8.5 5.5 99 0.0 W 69 104 37 56 - - 6.4
30/06:17pm 5.7 -8.6 5.6 99 0.0 W 70 122 38 66 - - 6.4
30/06:00pm 5.7 -7.3 5.6 99 0.0 W 63 98 34 53 - - 6.4
30/05:30pm 5.9 -7.0 5.8 99 0.0 W 63 95 34 51 - - 6.4
30/05:13pm 5.7 -8.0 5.6 99 0.0 W 67 107 36 58 - - 6.4
30/05:00pm 5.8 -7.1 5.7 99 0.0 W 63 87 34 47 - - 6.4
30/04:30pm 5.9 -7.4 5.8 99 0.0 W 65 93 35 50 - - 6.2
30/04:00pm 6.3 -6.2 6.2 99 0.0 W 61 80 33 43 - - 6.2
30/03:30pm 6.6 -4.5 6.5 99 0.0 W 54 83 29 45 - - 6.2
30/03:00pm 6.7 -4.9 6.6 99 0.0 W 57 82 31 44 - - 5.4
30/02:30pm 6.5 -5.2 6.4 99 0.0 W 57 80 31 43 - - 5.4
30/02:01pm 6.6 -4.1 6.5 99 0.0 W 52 89 28 48 - - 5.4
30/02:00pm 6.7 -3.6 6.6 99 0.0 W 50 70 27 38 - - 5.4
30/01:30pm 6.5 -2.5 6.4 99 0.0 W 43 61 23 33 - - 5.4
30/01:00pm 6.6 -2.6 6.5 99 0.0 W 44 72 24 39 - - 5.4
30/12:30pm 6.7 -2.3 6.6 99 0.0 W 43 69 23 37 - - 5.4
30/12:00pm 6.8 -1.0 6.7 99 0.0 W 37 65 20 35 - - 5.0
30/11:30am 7.0 0.2 6.9 99 0.0 W 32 52 17 28 - - 4.4
30/11:00am 7.0 0.2 6.9 99 0.0 W 32 59 17 32 - - 3.6
30/10:30am 6.9 -1.2 6.8 99 0.0 W 39 61 21 33 - - 3.2
30/10:12am 6.7 -0.2 6.6 99 0.0 W 32 52 17 28 - - 2.6
30/10:00am 6.6 0.1 6.5 99 0.0 W 30 44 16 24 - - 2.2
30/09:46am 6.4 0.2 6.3 99 0.0 W 28 48 15 26 - - 1.6
30/09:30am 6.3 0.1 6.2 99 0.0 W 28 44 15 24 - - 1.2
30/09:00am 6.1 0.6 6.0 99 0.0 W 24 39 13 21 - - 31.8
30/08:35am 5.9 -0.4 5.8 99 0.0 W 28 56 15 30 - - 31.0
30/08:30am 5.9 -0.4 5.8 99 0.0 W 28 46 15 25 - - 30.8
30/08:08am 5.8 -0.5 5.7 99 0.0 W 28 50 15 27 - - 30.4
30/08:00am 5.8 0.3 5.7 99 0.0 W 24 39 13 21 - - 30.2
30/07:39am 5.7 -0.6 5.6 99 0.0 W 28 50 15 27 - - 29.8
30/07:30am 5.8 -0.1 5.7 99 0.0 W 26 46 14 25 - - 29.8
30/07:00am 6.0 -0.3 5.9 99 0.0 W 28 46 15 25 - - 29.0
30/06:30am 5.8 0.6 5.7 99 0.0 W 22 39 12 21 - - 27.2
30/06:00am 5.5 0.7 5.4 99 0.0 W 20 41 11 22 - - 26.4
30/05:30am 5.3 0.0 5.2 99 0.0 W 22 37 12 20 - - 26.0
30/05:02am 4.7 -1.8 4.6 99 0.0 W 28 54 15 29 - - 26.0
30/05:00am 4.7 -1.4 4.6 99 0.0 W 26 41 14 22 - - 26.0
30/04:30am 4.8 -0.9 4.7 99 0.0 W 24 46 13 25 - - 26.0
30/04:00am 4.7 -0.7 4.6 99 0.0 W 22 39 12 21 - - 26.0
30/03:32am 4.4 -2.2 4.3 99 0.0 WSW 28 48 15 26 - - 26.0
30/03:30am 4.6 -1.6 4.5 99 0.0 WSW 26 48 14 26 - - 26.0
30/03:00am 5.1 1.1 5.0 99 0.0 E 15 35 8 19 - - 26.0
30/02:30am 6.2 0.4 6.1 99 0.0 WNW 26 54 14 29 - - 26.0
30/02:00am 6.3 -0.8 6.2 99 0.0 W 33 57 18 31 - - 25.2
30/01:30am 6.2 -1.0 6.1 99 0.0 W 33 56 18 30 - - 24.6
30/01:00am 6.2 -1.0 6.1 99 0.0 W 33 56 18 30 - - 24.0
30/12:30am 6.2 -2.5 6.1 99 0.0 W 41 65 22 35 - - 23.6
30/12:00am 6.3 -2.0 6.2 99 0.0 W 39 70 21 38 - - 23.6
 
Date/Time
EST
Temp
°C
App
Temp
°C
Dew
Point
Rel
Hum
%
Delta-T
°C
Wind Press
QNH
hPa
Press
MSL
hPa
Rain
since 9 am
mm
Dir
 
Spd
km/h
Gust
km/h
Spd
kts
Gust
kts
29/11:30pm 6.2 -2.9 6.1 99 0.0 W 43 76 23 41 - - 22.6
29/11:00pm 6.5 -2.1 6.4 99 0.0 W 41 69 22 37 - - 21.8
29/10:30pm 6.7 -3.2 6.6 99 0.0 W 48 74 26 40 - - 21.2
29/10:00pm 6.8 -2.1 6.7 99 0.0 W 43 65 23 35 - - 19.6
29/09:30pm 6.7 -2.8 6.6 99 0.0 W 46 82 25 44 - - 17.4
29/09:00pm 6.6 -2.9 6.5 99 0.0 W 46 78 25 42 - - 16.6
29/08:30pm 6.7 -1.9 6.6 99 0.0 W 41 69 22 37 - - 15.2
29/08:00pm 6.7 -4.3 6.6 99 0.0 W 54 83 29 45 - - 14.2
29/07:30pm 6.5 -3.8 6.4 99 0.0 W 50 82 27 44 - - 14.0
29/07:00pm 6.5 -5.2 6.4 99 0.0 W 57 91 31 49 - - 13.8
29/06:30pm 6.6 -5.0 6.5 99 0.0 W 57 96 31 52 - - 13.8
29/06:00pm 6.8 -3.5 6.7 99 0.0 W 50 89 27 48 - - 13.2
29/05:30pm 6.8 -2.7 6.7 99 0.0 W 46 76 25 41 - - 12.6
29/05:00pm 6.6 -3.7 6.5 99 0.0 W 50 78 27 42 - - 12.6
29/04:30pm 7.1 -1.8 7.0 99 0.0 W 43 76 23 41 - - 12.2
29/04:00pm 7.0 -2.5 6.9 99 0.0 W 46 76 25 41 - - 9.8
29/03:30pm 6.7 -1.9 6.6 99 0.0 W 41 67 22 36 - - 8.4
29/03:28pm 6.7 -2.3 6.6 99 0.0 WSW 43 63 23 34 - - 8.4
29/03:27pm 6.7 -2.4 6.6 99 0.0 WSW 44 63 24 34 - - 8.4
29/03:00pm 6.3 -6.9 6.2 99 0.0 W 65 96 35 52 - - 8.4
29/02:44pm 6.8 -4.2 6.7 99 0.0 W 54 95 29 51 - - 8.2
29/02:30pm 6.7 -4.0 6.6 99 0.0 W 52 74 28 40 - - 7.4
29/02:17pm 6.6 -3.3 6.5 99 0.0 W 48 67 26 36 - - 6.6
29/02:16pm 6.6 -2.9 6.5 99 0.0 W 46 65 25 35 - - 6.6
29/02:14pm 6.7 -8.1 6.6 99 0.0 W 74 96 40 52 - - 6.6
29/02:00pm 6.6 -4.1 6.5 99 0.0 W 52 80 28 43 - - 6.0
29/01:30pm 6.3 -5.4 6.2 99 0.0 W 57 89 31 48 - - 4.8
29/01:00pm 6.1 -5.6 6.0 99 0.0 W 57 93 31 50 - - 4.0
29/12:30pm 6.1 -7.2 6.0 99 0.0 W 65 87 35 47 - - 3.4
29/12:00pm 5.9 -7.4 5.8 99 0.0 W 65 95 35 51 - - 3.0
29/11:30am 5.7 -7.3 5.6 99 0.0 W 63 87 34 47 - - 2.4
29/11:00am 5.7 -7.3 5.6 99 0.0 W 63 85 34 46 - - 1.6
29/10:30am 5.6 -8.5 5.5 99 0.0 W 69 106 37 57 - - 1.2
29/10:20am 5.5 -8.8 5.4 99 0.0 W 70 104 38 56 - - 1.2
29/10:00am 5.4 -8.0 5.3 99 0.0 W 65 83 35 45 - - 1.0
29/09:30am 5.2 -8.6 5.1 99 0.0 W 67 93 36 50 - - 0.6
29/09:00am 4.9 -8.6 4.8 99 0.0 W 65 83 35 45 - - 2.6
29/08:30am 5.0 -7.7 4.9 99 0.0 W 61 80 33 43 - - 2.4
29/08:00am 4.8 -7.2 4.7 99 0.0 W 57 82 31 44 - - 1.8
29/07:30am 4.7 -9.2 4.6 99 0.0 W 67 107 36 58 - - 1.6
29/07:00am 4.6 -9.7 4.5 99 0.0 W 69 93 37 50 - - 0.8
29/06:30am 4.8 -10.1 4.7 99 0.0 W 72 102 39 55 - - 0.8
29/06:06am 4.6 -8.2 4.5 99 0.0 W 61 106 33 57 - - 0.8
29/06:00am 4.6 -8.6 4.5 99 0.0 W 63 85 34 46 - - 0.6
29/05:30am 4.8 -7.2 4.7 99 0.0 W 57 87 31 47 - - 0.6
29/05:00am 4.6 -7.3 4.5 99 0.0 W 56 89 30 48 - - 0.6
29/04:30am 4.7 -7.7 4.6 99 0.0 W 59 85 32 46 - - 0.6
29/04:00am 4.7 -7.3 4.6 99 0.0 W 57 82 31 44 - - 0.6
29/03:30am 4.8 -7.2 4.7 99 0.0 W 57 93 31 50 - - 0.6
29/03:00am 4.8 -6.6 4.7 99 0.0 W 54 87 29 47 - - 0.6
29/02:30am 4.8 -7.2 4.7 99 0.0 W 57 82 31 44 - - 0.6
29/02:00am 4.9 -7.1 4.8 99 0.0 W 57 85 31 46 - - 0.6
29/01:35am 4.8 -7.2 4.7 99 0.0 W 57 102 31 55 - - 0.6
29/01:30am 4.8 -7.2 4.7 99 0.0 W 57 83 31 45 - - 0.6
29/01:00am 4.9 -5.8 4.8 99 0.0 W 50 72 27 39 - - 0.4
29/12:30am 4.9 -5.8 4.8 99 0.0 W 50 78 27 42 - - 0.4
29/12:18am 4.9 -6.5 4.8 99 0.0 W 54 91 29 49 - - 0.4
29/12:00am 4.8 -5.9 4.7 99 0.0 W 50 70 27 38 - - 0.4
 
Date/Time
EST
Temp
°C
App
Temp
°C
Dew
Point
Rel
Hum
%
Delta-T
°C
Wind Press
QNH
hPa
Press
MSL
hPa
Rain
since 9 am
mm
Dir
 
Spd
km/h
Gust
km/h
Spd
kts
Gust
kts
28/11:30pm 4.7 -7.3 4.6 99 0.0 W 57 82 31 44 - - 0.4
28/11:00pm 4.5 -6.6 4.4 99 0.0 W 52 74 28 40 - - 0.4
28/10:30pm 4.5 -7.0 4.4 99 0.0 W 54 80 29 43 - - 0.4
28/10:00pm 4.4 -7.7 4.3 99 0.0 W 57 76 31 41 - - 0.4
28/09:30pm 4.7 -7.2 4.1 96 0.3 W 56 74 30 40 - - 0.4
28/09:00pm 4.7 -6.1 4.3 97 0.2 W 50 76 27 41 - - 0.4
28/08:30pm 4.8 -5.6 4.2 96 0.3 W 48 72 26 39 - - 0.4
28/08:05pm 4.7 -4.3 4.6 99 0.0 W 41 61 22 33 - - 0.4
28/08:00pm 4.7 -4.3 4.6 99 0.0 W 41 57 22 31 - - 0.4
28/07:30pm 4.9 -4.6 4.8 99 0.0 W 44 59 24 32 - - 0.4
28/07:14pm 5.1 -3.8 5.0 99 0.0 W 41 63 22 34 - - 0.4
28/07:00pm 5.2 -2.9 5.1 99 0.0 W 37 52 20 28 - - 0.4
28/06:47pm 5.3 -3.6 5.2 99 0.0 W 41 61 22 33 - - 0.4
28/06:30pm 5.2 -3.3 5.1 99 0.0 WNW 39 57 21 31 - - 0.4
28/06:00pm 5.1 -2.8 4.5 96 0.3 WNW 35 57 19 31 - - 0.4
28/05:39pm 5.1 -2.4 4.4 95 0.3 W 33 52 18 28 - - 0.4
28/05:30pm 5.3 -2.0 4.4 94 0.4 W 32 46 17 25 - - 0.4

Other Formats:

Comma delimited format used in spreadsheet applications
http://www.bom.gov.au/fwo/IDV60801/IDV60801.94833.axf

JavaScript Object Notation format (JSON) in row-major order
http://www.bom.gov.au/fwo/IDV60801/IDV60801.94833.json